createdAt,value
2019-05-18T00:00:46.718Z,11.97
2019-05-18T00:03:22.800Z,10.47
2019-05-18T00:05:56.194Z,11.10
2019-05-18T00:08:29.837Z,11.03
2019-05-18T00:11:03.379Z,9.27
2019-05-18T00:13:37.125Z,9.80
2019-05-18T00:16:10.618Z,8.27
2019-05-18T00:18:44.545Z,9.90
2019-05-18T00:21:20.657Z,10.63
2019-05-18T00:24:00.744Z,9.73
2019-05-18T00:26:34.017Z,9.13
2019-05-18T00:29:07.914Z,9.97
2019-05-18T00:31:41.277Z,10.70
2019-05-18T00:34:14.645Z,10.13
2019-05-18T00:36:50.439Z,11.20
2019-05-18T00:39:24.611Z,13.07
2019-05-18T00:42:00.319Z,10.10
2019-05-18T00:44:34.334Z,9.63
2019-05-18T00:47:13.236Z,17.97
2019-05-18T00:49:47.249Z,11.43
2019-05-18T00:52:20.830Z,10.70
2019-05-18T00:54:55.257Z,10.03
2019-05-18T00:57:28.913Z,9.30
2019-05-18T01:00:02.514Z,11.73
2019-05-18T01:02:36.682Z,12.43
2019-05-18T01:05:11.748Z,10.70
2019-05-18T01:07:48.107Z,12.37
2019-05-18T01:10:21.642Z,13.17
2019-05-18T01:12:56.858Z,14.10
2019-05-18T01:15:30.922Z,12.47
2019-05-18T01:18:04.885Z,10.80
2019-05-18T01:20:39.941Z,9.57
2019-05-18T01:23:16.996Z,9.50
2019-05-18T01:25:52.714Z,8.97
2019-05-18T01:28:28.538Z,8.33
2019-05-18T01:31:05.388Z,8.40
2019-05-18T01:33:41.198Z,10.03
2019-05-18T01:36:17.002Z,8.90
2019-05-18T01:38:50.776Z,8.87
2019-05-18T01:41:25.028Z,8.50
2019-05-18T01:43:58.690Z,7.40
2019-05-18T01:46:32.660Z,9.20
2019-05-18T01:49:07.406Z,8.80
2019-05-18T01:51:42.538Z,8.03
2019-05-18T01:54:17.506Z,8.60
2019-05-18T01:56:54.654Z,7.60
2019-05-18T01:59:27.787Z,7.40
2019-05-18T02:02:02.906Z,7.20
2019-05-18T02:04:37.154Z,8.23
2019-05-18T02:07:11.366Z,9.07
2019-05-18T02:09:45.073Z,8.57
2019-05-18T02:12:19.504Z,8.87
2019-05-18T02:14:58.587Z,6.90
2019-05-18T02:17:32.246Z,6.43
2019-05-18T02:20:05.927Z,7.10
2019-05-18T02:22:40.138Z,8.17
2019-05-18T02:25:19.069Z,9.17
2019-05-18T02:27:52.927Z,8.00
2019-05-18T02:30:27.707Z,8.23
2019-05-18T02:33:02.569Z,6.20
2019-05-18T02:35:36.016Z,7.37
2019-05-18T02:38:18.267Z,9.97
2019-05-18T02:40:52.976Z,9.13
2019-05-18T02:43:26.139Z,7.73
2019-05-18T02:45:59.027Z,7.17
2019-05-18T02:48:47.832Z,8.80
2019-05-18T02:51:11.107Z,7.50
2019-05-18T02:53:43.884Z,7.93
2019-05-18T02:56:17.473Z,7.93
2019-05-18T02:58:50.780Z,8.83
2019-05-18T03:01:26.122Z,6.80
2019-05-18T03:04:01.129Z,6.63
2019-05-18T03:10:33.314Z,8.33
2019-05-18T03:13:08.543Z,12.03
2019-05-18T03:15:42.595Z,21.33
2019-05-18T03:18:17.341Z,7.87
2019-05-18T03:20:51.559Z,10.90
2019-05-18T03:23:25.057Z,10.30
2019-05-18T03:26:01.604Z,9.33
2019-05-18T03:28:35.785Z,8.77
2019-05-18T03:31:10.295Z,10.37
2019-05-18T03:33:43.935Z,7.63
2019-05-18T03:36:18.467Z,8.70
2019-05-18T03:38:53.985Z,13.30
2019-05-18T03:41:27.701Z,8.53
2019-05-18T03:44:03.551Z,7.60
2019-05-18T03:46:37.522Z,7.50
2019-05-18T03:49:27.079Z,7.17
2019-05-18T03:51:56.643Z,8.97
2019-05-18T03:54:30.322Z,7.30
2019-05-18T03:57:04.198Z,12.13
2019-05-18T03:59:39.050Z,7.60
2019-05-18T04:02:13.093Z,9.93
2019-05-18T04:04:50.475Z,8.50
2019-05-18T04:07:28.867Z,10.10
2019-05-18T04:10:05.360Z,8.40
2019-05-18T04:12:38.449Z,8.40
2019-05-18T04:15:12.550Z,8.67
2019-05-18T04:17:46.557Z,7.23
2019-05-18T04:20:19.705Z,6.70
2019-05-18T04:22:52.103Z,5.57
2019-05-18T04:25:26.437Z,6.17
2019-05-18T04:28:02.832Z,6.37
2019-05-18T04:30:38.232Z,10.20
2019-05-18T04:33:11.828Z,7.23
2019-05-18T04:35:49.822Z,6.93
2019-05-18T04:38:23.259Z,7.57
2019-05-18T04:40:56.486Z,7.03
2019-05-18T04:43:29.297Z,7.97
2019-05-18T04:46:05.957Z,6.50
2019-05-18T04:48:40.655Z,7.60
2019-05-18T04:51:15.869Z,8.37
2019-05-18T04:53:49.551Z,10.67
2019-05-18T04:56:23.220Z,10.00
2019-05-18T04:58:57.358Z,9.50
2019-05-18T05:01:31.040Z,8.93
2019-05-18T05:04:04.673Z,11.50
2019-05-18T05:06:38.323Z,11.07
2019-05-18T05:09:11.845Z,9.80
2019-05-18T05:11:45.335Z,9.00
2019-05-18T05:14:18.942Z,12.73
2019-05-18T05:16:56.426Z,9.87
2019-05-18T05:19:33.051Z,10.00
2019-05-18T05:22:08.052Z,11.33
2019-05-18T05:24:45.482Z,11.20
2019-05-18T05:27:20.888Z,16.63
2019-05-18T05:29:58.776Z,13.57
2019-05-18T05:32:33.313Z,14.27
2019-05-18T05:35:10.152Z,23.87
2019-05-18T05:37:44.850Z,19.60
2019-05-18T05:40:24.508Z,11.33
2019-05-18T05:43:02.056Z,21.53
2019-05-18T05:45:40.200Z,13.80
2019-05-18T05:48:21.083Z,13.63
2019-05-18T05:50:54.149Z,9.53
2019-05-18T05:53:34.107Z,12.47
2019-05-18T05:59:58.155Z,10.37
2019-05-18T06:02:31.569Z,11.60
2019-05-18T06:05:05.020Z,13.70
2019-05-18T06:07:38.939Z,11.70
2019-05-18T06:10:19.372Z,10.73
2019-05-18T06:12:52.701Z,12.63
2019-05-18T06:15:26.147Z,11.87
2019-05-18T06:17:59.537Z,10.97
2019-05-18T06:20:33.180Z,10.37
2019-05-18T06:23:06.749Z,11.37
2019-05-18T06:25:40.588Z,14.20
2019-05-18T06:28:13.709Z,12.33
2019-05-18T06:30:48.989Z,10.10
2019-05-18T06:33:22.103Z,11.70
2019-05-18T06:36:47.793Z,13.90
2019-05-18T06:39:23.902Z,13.40
2019-05-18T06:41:57.801Z,10.83
2019-05-18T06:44:36.696Z,10.83
2019-05-18T06:47:11.165Z,10.73
2019-05-18T06:49:45.358Z,9.43
2019-05-18T06:52:20.586Z,9.20
2019-05-18T06:54:54.062Z,5.60
2019-05-18T06:57:28.607Z,7.30
2019-05-18T07:00:08.281Z,6.70
2019-05-18T07:02:42.734Z,12.70
2019-05-18T07:05:17.590Z,8.20
2019-05-18T07:07:51.183Z,12.03
2019-05-18T07:10:48.206Z,10.10
2019-05-18T07:13:38.429Z,8.87
2019-05-18T07:19:55.065Z,6.33
2019-05-18T07:26:23.771Z,6.97
2019-05-18T07:28:59.553Z,9.70
2019-05-18T07:34:55.820Z,6.10
2019-05-18T07:37:29.805Z,9.60
2019-05-18T07:40:08.998Z,10.97
2019-05-18T07:46:36.623Z,9.07
2019-05-18T07:49:41.528Z,7.40
2019-05-18T07:52:22.450Z,8.23
2019-05-18T07:54:56.763Z,9.03
2019-05-18T07:57:59.872Z,7.83
2019-05-18T08:00:33.625Z,14.10
2019-05-18T08:03:07.529Z,9.50
2019-05-18T08:09:42.701Z,9.63
2019-05-18T08:16:21.402Z,10.10
2019-05-18T08:20:02.992Z,9.70
2019-05-18T08:23:31.191Z,9.50
2019-05-18T08:26:19.531Z,8.70
2019-05-18T08:28:56.527Z,9.17
2019-05-18T08:31:59.424Z,8.83
2019-05-18T08:34:33.747Z,9.67
2019-05-18T08:37:14.251Z,10.70
2019-05-18T08:40:21.604Z,10.03
2019-05-18T08:46:56.493Z,10.30
2019-05-18T08:49:30.164Z,8.80
2019-05-18T08:55:37.000Z,12.33
2019-05-18T09:02:08.051Z,10.43
2019-05-18T09:04:42.201Z,11.63
2019-05-18T09:07:16.804Z,7.53
2019-05-18T09:10:43.239Z,8.57
2019-05-18T09:14:11.599Z,9.17
2019-05-18T09:17:00.832Z,8.97
2019-05-18T09:19:39.293Z,7.53
2019-05-18T09:22:51.046Z,8.30
2019-05-18T09:25:52.528Z,10.37
2019-05-18T09:28:26.901Z,8.03
2019-05-18T09:31:31.121Z,7.60
2019-05-18T09:34:10.396Z,7.27
2019-05-18T09:40:40.649Z,6.77
2019-05-18T09:44:07.600Z,7.73
2019-05-18T09:46:41.851Z,12.07
2019-05-18T09:49:16.669Z,12.00
2019-05-18T09:51:49.398Z,8.53
2019-05-18T09:54:31.223Z,8.70
2019-05-18T09:57:04.158Z,10.70
2019-05-18T10:03:39.420Z,6.43
2019-05-18T10:06:14.855Z,7.00
2019-05-18T10:08:49.141Z,6.73
2019-05-18T10:11:23.037Z,4.90
2019-05-18T10:14:16.017Z,11.13
2019-05-18T10:16:53.663Z,7.90
2019-05-18T10:19:29.018Z,6.27
2019-05-18T10:22:03.041Z,4.30
2019-05-18T10:25:12.485Z,4.00
2019-05-18T10:28:51.975Z,5.60
2019-05-18T10:31:39.939Z,5.17
2019-05-18T10:34:47.467Z,4.57
2019-05-18T10:37:33.364Z,7.63
2019-05-18T10:40:20.440Z,9.33
2019-05-18T10:43:02.971Z,4.43
2019-05-18T10:45:44.481Z,13.53
2019-05-18T10:48:17.049Z,7.53
2019-05-18T10:50:51.546Z,5.87
2019-05-18T10:53:45.136Z,6.80
2019-05-18T10:56:24.197Z,4.47
2019-05-18T10:59:04.622Z,5.70
2019-05-18T11:01:50.627Z,3.63
2019-05-18T11:04:39.180Z,3.47
2019-05-18T11:07:44.729Z,8.03
2019-05-18T11:10:53.656Z,4.67
2019-05-18T11:13:27.097Z,6.63
2019-05-18T11:16:44.213Z,7.27
2019-05-18T11:19:34.835Z,7.40
2019-05-18T11:27:07.624Z,9.30
2019-05-18T11:33:35.791Z,6.73
2019-05-18T11:39:33.523Z,6.40
2019-05-18T11:42:07.743Z,9.20
2019-05-18T11:44:42.076Z,8.20
2019-05-18T11:47:17.780Z,7.63
2019-05-18T11:50:25.688Z,9.10
2019-05-18T11:53:11.010Z,11.27
2019-05-18T11:55:45.985Z,9.20
2019-05-18T11:58:19.238Z,8.80
2019-05-18T12:00:59.084Z,9.03
2019-05-18T12:03:37.249Z,7.90
2019-05-18T12:06:44.214Z,7.10
2019-05-18T12:09:19.069Z,8.70
2019-05-18T12:11:52.568Z,9.03
2019-05-18T12:14:29.861Z,7.87
2019-05-18T12:17:04.870Z,7.77
2019-05-18T12:19:40.142Z,13.73
2019-05-18T12:22:36.705Z,8.70
2019-05-18T12:25:19.561Z,7.93
2019-05-18T12:27:58.290Z,7.33
2019-05-18T12:30:32.594Z,7.80
2019-05-18T12:33:38.330Z,7.40
2019-05-18T12:36:15.404Z,8.10
2019-05-18T12:39:53.076Z,11.03
2019-05-18T12:42:27.913Z,7.93
2019-05-18T12:45:28.373Z,10.03
2019-05-18T12:48:06.177Z,7.23
2019-05-18T12:51:11.714Z,7.17
2019-05-18T12:53:50.661Z,8.90
2019-05-18T12:56:25.860Z,6.50
2019-05-18T13:00:20.424Z,6.73
2019-05-18T13:02:58.301Z,7.63
2019-05-18T13:05:51.920Z,7.37
2019-05-18T13:08:28.144Z,7.70
2019-05-18T13:11:15.464Z,7.30
2019-05-18T13:13:52.761Z,6.93
2019-05-18T13:16:24.826Z,8.10
2019-05-18T13:19:06.476Z,9.07
2019-05-18T13:21:51.412Z,8.63
2019-05-18T13:24:44.242Z,7.03
2019-05-18T13:27:16.583Z,7.80
2019-05-18T13:29:50.501Z,7.43
2019-05-18T13:33:19.959Z,8.23
2019-05-18T13:35:53.842Z,7.77
2019-05-18T13:38:27.792Z,7.40
2019-05-18T13:41:18.272Z,8.00
2019-05-18T13:44:00.036Z,7.50
2019-05-18T13:46:41.518Z,7.73
2019-05-18T13:49:23.847Z,8.40
2019-05-18T13:51:58.124Z,7.80
2019-05-18T13:55:01.207Z,8.40
2019-05-18T13:57:50.723Z,8.60
2019-05-18T14:00:28.874Z,7.67
2019-05-18T14:03:10.525Z,7.83
2019-05-18T14:06:01.912Z,8.00
2019-05-18T14:08:36.774Z,7.87
2019-05-18T14:11:12.036Z,7.70
2019-05-18T14:13:51.928Z,8.80
2019-05-18T14:17:00.855Z,9.00
2019-05-18T14:19:53.260Z,7.83
2019-05-18T14:22:41.451Z,8.40
2019-05-18T14:25:20.237Z,8.00
2019-05-18T14:27:54.528Z,8.70
2019-05-18T14:30:28.947Z,8.20
2019-05-18T14:37:06.738Z,8.00
2019-05-18T14:40:08.350Z,6.73
2019-05-18T14:43:08.114Z,8.77
2019-05-18T14:46:02.162Z,7.00
2019-05-18T14:48:44.946Z,8.10
2019-05-18T14:52:03.218Z,5.27
2019-05-18T14:54:39.882Z,6.10
2019-05-18T14:57:14.333Z,5.20
2019-05-18T14:59:54.747Z,5.70
2019-05-18T15:02:28.777Z,6.00
2019-05-18T15:05:14.738Z,5.20
2019-05-18T15:08:07.327Z,5.13
2019-05-18T15:10:42.254Z,5.20
2019-05-18T15:13:17.208Z,5.67
2019-05-18T15:16:06.004Z,7.47
2019-05-18T15:26:30.344Z,8.23
2019-05-18T15:29:05.961Z,5.67
2019-05-18T15:31:39.598Z,5.37
2019-05-18T15:41:58.727Z,5.50
2019-05-18T15:55:20.815Z,4.80
2019-05-18T15:57:54.992Z,6.30
2019-05-18T16:00:31.362Z,6.20
2019-05-18T16:07:14.197Z,5.33
2019-05-18T16:09:48.131Z,4.47
2019-05-18T16:12:23.273Z,6.07
2019-05-18T16:14:57.725Z,4.93
2019-05-18T16:17:39.250Z,6.57
2019-05-18T16:24:09.837Z,6.23
2019-05-18T16:27:17.365Z,7.40
2019-05-18T16:29:56.226Z,6.40
2019-05-18T16:32:30.317Z,6.37
2019-05-18T16:35:18.114Z,12.20
2019-05-18T16:42:01.360Z,7.93
2019-05-18T16:56:35.311Z,16.80
2019-05-18T17:03:45.644Z,7.53
2019-05-18T17:06:43.674Z,6.20
2019-05-18T17:10:03.395Z,8.60
2019-05-18T17:12:37.812Z,11.57
2019-05-18T17:15:50.865Z,9.67
2019-05-18T17:18:30.542Z,6.70
2019-05-18T17:21:35.201Z,7.83
2019-05-18T17:24:09.800Z,7.27
2019-05-18T17:30:55.634Z,10.27
2019-05-18T17:34:12.809Z,11.00
2019-05-18T17:36:52.389Z,9.70
2019-05-18T17:43:41.283Z,8.50
2019-05-18T17:47:24.059Z,13.00
2019-05-18T17:50:00.018Z,15.63
2019-05-18T17:53:43.981Z,8.03
2019-05-18T17:56:32.299Z,7.43
2019-05-18T17:59:36.458Z,12.23
2019-05-18T18:06:04.653Z,9.60
2019-05-18T18:08:43.422Z,11.10
2019-05-18T18:53:41.902Z,9.67
2019-05-18T19:00:28.565Z,9.93
2019-05-18T19:03:04.620Z,13.40
2019-05-18T19:05:59.718Z,11.50
2019-05-18T19:16:22.934Z,9.03
2019-05-18T19:18:56.711Z,9.93
2019-05-18T19:21:32.209Z,8.50
2019-05-18T19:24:16.566Z,9.70
2019-05-18T19:26:52.577Z,9.03
2019-05-18T19:29:28.158Z,10.63
2019-05-18T19:32:09.696Z,12.07
2019-05-18T19:35:13.799Z,12.80
2019-05-18T19:37:47.999Z,10.87
2019-05-18T19:41:20.144Z,10.30
2019-05-18T19:44:23.856Z,18.13
2019-05-18T19:50:57.155Z,14.10
2019-05-18T19:53:36.606Z,12.50
2019-05-18T19:56:42.370Z,12.40
2019-05-18T19:59:17.354Z,12.07
2019-05-18T20:02:26.375Z,16.93
2019-05-18T20:05:08.875Z,15.70
2019-05-18T20:07:48.050Z,13.87
2019-05-18T20:10:23.737Z,11.47
2019-05-18T20:12:57.705Z,13.20
2019-05-18T20:15:39.302Z,11.57
2019-05-18T20:18:53.612Z,13.07
2019-05-18T20:21:41.308Z,16.27
2019-05-18T20:28:23.421Z,13.80
2019-05-18T20:30:50.037Z,12.73
2019-05-18T20:33:29.421Z,11.43
2019-05-18T20:37:04.978Z,12.77
2019-05-18T20:40:06.687Z,13.43
2019-05-18T20:42:53.965Z,11.07
2019-05-18T20:45:29.156Z,10.97
2019-05-18T20:52:03.131Z,15.23
2019-05-18T20:54:39.407Z,11.83
2019-05-18T20:57:13.754Z,11.70
2019-05-18T20:59:50.089Z,12.27
2019-05-18T21:02:33.296Z,17.60
2019-05-18T21:05:16.511Z,13.60
2019-05-18T21:07:52.696Z,13.80
2019-05-18T21:10:29.012Z,14.37
2019-05-18T21:13:30.063Z,14.50
2019-05-18T21:20:47.716Z,13.73
2019-05-18T21:23:22.925Z,12.50
2019-05-18T21:26:02.406Z,13.77
2019-05-18T21:28:55.476Z,11.87
2019-05-18T21:31:20.812Z,14.53
2019-05-18T21:34:26.890Z,13.30
2019-05-18T21:37:00.421Z,14.03
2019-05-18T21:39:34.753Z,12.53
2019-05-18T21:42:12.228Z,11.23
2019-05-18T21:44:50.200Z,10.93
2019-05-18T21:47:27.154Z,21.57
2019-05-18T21:50:14.287Z,13.23
2019-05-18T21:52:49.250Z,14.27
2019-05-18T21:55:31.826Z,12.13
2019-05-18T21:58:06.528Z,11.87
2019-05-18T22:00:40.841Z,12.47
2019-05-18T22:03:22.266Z,10.97
2019-05-18T22:05:58.625Z,10.90
2019-05-18T22:08:47.914Z,12.87
2019-05-18T22:11:21.193Z,11.77
2019-05-18T22:13:56.266Z,12.00
2019-05-18T22:16:32.399Z,11.97
2019-05-18T22:19:07.008Z,14.83
2019-05-18T22:21:43.086Z,15.53
2019-05-18T22:24:16.975Z,25.53
2019-05-18T22:26:51.463Z,16.20
2019-05-18T22:29:26.578Z,12.93
2019-05-18T22:32:04.711Z,22.87
2019-05-18T22:34:43.669Z,12.90
2019-05-18T22:37:21.074Z,11.57
2019-05-18T22:40:01.302Z,10.37
2019-05-18T22:42:35.362Z,11.87
2019-05-18T22:45:09.540Z,13.80
2019-05-18T22:47:51.494Z,12.83
2019-05-18T22:50:26.400Z,13.33
2019-05-18T22:53:00.027Z,11.87
2019-05-18T22:55:42.252Z,12.50
2019-05-18T22:58:18.177Z,13.43
2019-05-18T23:00:51.840Z,12.97
2019-05-18T23:03:27.684Z,13.77
2019-05-18T23:06:00.801Z,18.50
2019-05-18T23:08:35.158Z,14.43
2019-05-18T23:11:08.269Z,15.03
2019-05-18T23:14:35.777Z,13.40
2019-05-18T23:17:11.813Z,11.97
2019-05-18T23:19:48.705Z,11.57
2019-05-18T23:22:28.992Z,13.20
2019-05-18T23:25:02.822Z,12.83
2019-05-18T23:27:37.373Z,11.60
2019-05-18T23:30:12.758Z,12.13
2019-05-18T23:32:50.480Z,11.37
2019-05-18T23:35:25.162Z,12.40
2019-05-18T23:37:59.313Z,11.87
2019-05-18T23:40:34.773Z,12.33
2019-05-18T23:43:09.521Z,13.27
2019-05-18T23:45:42.624Z,13.33
2019-05-18T23:48:16.010Z,12.27
2019-05-18T23:50:50.597Z,11.53
2019-05-18T23:53:24.500Z,11.23
2019-05-18T23:55:58.370Z,11.33
2019-05-18T23:58:34.819Z,10.60
